createdAt,value
2022-10-06T00:00:11.164Z,12.75
2022-10-06T00:01:14.209Z,12.75
2022-10-06T00:02:17.669Z,12.75
2022-10-06T00:03:53.046Z,12.75
2022-10-06T00:04:56.014Z,12.75
2022-10-06T00:05:59.031Z,12.75
2022-10-06T00:07:33.744Z,12.69
2022-10-06T00:08:36.647Z,12.69
2022-10-06T00:09:39.512Z,12.69
2022-10-06T00:11:14.138Z,12.69
2022-10-06T00:12:16.786Z,12.75
2022-10-06T00:13:19.722Z,12.69
2022-10-06T00:14:54.381Z,12.69
2022-10-06T00:15:57.343Z,12.69
2022-10-06T00:17:00.512Z,12.69
2022-10-06T00:18:35.083Z,12.69
2022-10-06T00:19:37.864Z,12.69
2022-10-06T00:20:40.489Z,12.69
2022-10-06T00:22:15.113Z,12.69
2022-10-06T00:23:17.759Z,12.69
2022-10-06T00:24:20.630Z,12.63
2022-10-06T00:25:55.231Z,12.63
2022-10-06T00:26:58.267Z,12.63
2022-10-06T00:28:00.922Z,12.63
2022-10-06T00:29:36.743Z,12.63
2022-10-06T00:30:39.611Z,12.63
2022-10-06T00:31:43.117Z,12.56
2022-10-06T00:33:17.691Z,12.63
2022-10-06T00:34:20.759Z,12.56
2022-10-06T00:35:23.468Z,12.56
2022-10-06T00:36:58.085Z,12.56
2022-10-06T00:38:00.801Z,12.56
2022-10-06T00:39:04.056Z,12.56
2022-10-06T00:40:38.868Z,12.56
2022-10-06T00:41:41.702Z,12.50
2022-10-06T00:42:44.573Z,12.50
2022-10-06T00:44:18.975Z,12.50
2022-10-06T00:45:21.922Z,12.50
2022-10-06T00:46:24.825Z,12.50
2022-10-06T00:48:00.026Z,12.50
2022-10-06T00:49:03.300Z,12.50
2022-10-06T00:50:06.084Z,12.50
2022-10-06T00:51:40.811Z,12.50
2022-10-06T00:52:43.615Z,12.50
2022-10-06T00:53:46.334Z,12.50
2022-10-06T00:55:20.934Z,12.50
2022-10-06T00:56:23.812Z,12.50
2022-10-06T00:57:26.664Z,12.50
2022-10-06T00:59:02.361Z,12.50
2022-10-06T01:00:12.523Z,12.50
2022-10-06T01:01:15.529Z,12.44
2022-10-06T01:02:18.956Z,12.44
2022-10-06T01:03:54.318Z,12.44
2022-10-06T01:04:57.006Z,12.44
2022-10-06T01:05:59.867Z,12.44
2022-10-06T01:07:34.318Z,12.44
2022-10-06T01:08:37.225Z,12.44
2022-10-06T01:09:39.941Z,12.38
2022-10-06T01:11:14.777Z,12.38
2022-10-06T01:12:17.784Z,12.38
2022-10-06T01:13:20.576Z,12.38
2022-10-06T01:14:55.054Z,12.31
2022-10-06T01:15:57.742Z,12.31
2022-10-06T01:17:00.843Z,12.31
2022-10-06T01:18:35.509Z,12.31
2022-10-06T01:19:38.158Z,12.31
2022-10-06T01:20:40.909Z,12.31
2022-10-06T01:22:15.428Z,12.25
2022-10-06T01:23:18.169Z,12.25
2022-10-06T01:24:20.942Z,12.25
2022-10-06T01:25:55.483Z,12.25
2022-10-06T01:26:58.209Z,12.25
2022-10-06T01:28:01.252Z,12.25
2022-10-06T01:29:36.809Z,12.25
2022-10-06T01:30:39.813Z,12.25
2022-10-06T01:31:43.307Z,12.25
2022-10-06T01:33:17.948Z,12.25
2022-10-06T01:34:20.677Z,12.19
2022-10-06T01:35:23.356Z,12.25
2022-10-06T01:36:57.974Z,12.25
2022-10-06T01:38:00.534Z,12.19
2022-10-06T01:39:03.910Z,12.19
2022-10-06T01:40:38.791Z,12.13
2022-10-06T01:41:41.641Z,12.19
2022-10-06T01:42:44.517Z,12.19
2022-10-06T01:44:19.187Z,12.13
2022-10-06T01:45:22.071Z,12.13
2022-10-06T01:46:25.033Z,12.19
2022-10-06T01:48:00.422Z,12.13
2022-10-06T01:49:03.701Z,12.13
2022-10-06T01:50:06.529Z,12.13
2022-10-06T01:51:41.169Z,12.13
2022-10-06T01:52:43.876Z,12.13
2022-10-06T01:53:46.572Z,12.06
2022-10-06T01:55:21.112Z,12.06
2022-10-06T01:56:23.759Z,12.06
2022-10-06T01:57:26.852Z,12.06
2022-10-06T01:59:02.115Z,12.00
2022-10-06T02:00:12.009Z,12.00
2022-10-06T02:01:14.902Z,12.00
2022-10-06T02:02:18.214Z,12.00
2022-10-06T02:03:52.803Z,12.00
2022-10-06T02:04:55.910Z,12.00
2022-10-06T02:05:58.746Z,12.00
2022-10-06T02:07:33.895Z,12.00
2022-10-06T02:08:36.968Z,12.00
2022-10-06T02:09:39.844Z,12.00
2022-10-06T02:11:14.350Z,12.00
2022-10-06T02:12:17.110Z,11.94
2022-10-06T02:13:20.273Z,11.94
2022-10-06T02:14:55.059Z,11.94
2022-10-06T02:15:57.969Z,11.94
2022-10-06T02:17:01.493Z,11.94
2022-10-06T02:18:35.940Z,11.88
2022-10-06T02:19:38.814Z,11.88
2022-10-06T02:20:41.560Z,11.88
2022-10-06T02:22:16.049Z,11.81
2022-10-06T02:23:18.908Z,11.81
2022-10-06T02:24:21.980Z,11.81
2022-10-06T02:25:56.994Z,11.81
2022-10-06T02:26:59.683Z,11.81
2022-10-06T02:28:02.534Z,11.81
2022-10-06T02:29:38.801Z,11.75
2022-10-06T02:30:41.531Z,11.75
2022-10-06T02:31:44.732Z,11.75
2022-10-06T02:33:19.454Z,11.69
2022-10-06T02:34:22.331Z,11.69
2022-10-06T02:35:25.042Z,11.69
2022-10-06T02:36:59.589Z,11.69
2022-10-06T02:38:02.268Z,11.69
2022-10-06T02:39:06.095Z,11.69
2022-10-06T02:40:40.860Z,11.69
2022-10-06T02:41:43.597Z,11.63
2022-10-06T02:42:46.244Z,11.63
2022-10-06T02:44:20.710Z,11.63
2022-10-06T02:45:23.496Z,11.63
2022-10-06T02:46:26.474Z,11.63
2022-10-06T02:48:01.825Z,11.63
2022-10-06T02:49:05.766Z,11.63
2022-10-06T02:50:08.535Z,11.63
2022-10-06T02:51:43.219Z,11.63
2022-10-06T02:52:46.094Z,11.56
2022-10-06T02:53:48.961Z,11.56
2022-10-06T02:55:23.663Z,11.56
2022-10-06T02:56:26.448Z,11.56
2022-10-06T02:57:29.369Z,11.56
2022-10-06T02:59:04.587Z,11.56
2022-10-06T03:00:12.426Z,11.56
2022-10-06T03:01:15.123Z,11.56
2022-10-06T03:02:19.047Z,11.50
2022-10-06T03:03:54.819Z,11.50
2022-10-06T03:04:57.627Z,11.50
2022-10-06T03:06:00.258Z,11.44
2022-10-06T03:07:35.359Z,11.44
2022-10-06T03:08:38.158Z,11.38
2022-10-06T03:09:40.993Z,11.38
2022-10-06T03:11:15.461Z,11.38
2022-10-06T03:12:18.110Z,11.31
2022-10-06T03:13:20.899Z,11.31
2022-10-06T03:15:02.185Z,11.31
2022-10-06T03:16:05.072Z,11.31
2022-10-06T03:17:08.724Z,11.31
2022-10-06T03:18:43.445Z,11.25
2022-10-06T03:19:46.194Z,11.25
2022-10-06T03:20:48.732Z,11.25
2022-10-06T03:22:23.175Z,11.25
2022-10-06T03:23:26.032Z,11.25
2022-10-06T03:24:28.798Z,11.25
2022-10-06T03:26:04.020Z,11.19
2022-10-06T03:27:06.762Z,11.19
2022-10-06T03:28:09.510Z,11.19
2022-10-06T03:29:51.634Z,11.25
2022-10-06T03:30:54.269Z,11.19
2022-10-06T03:31:57.353Z,11.19
2022-10-06T03:33:32.105Z,11.19
2022-10-06T03:34:34.730Z,11.13
2022-10-06T03:35:38.582Z,11.13
2022-10-06T03:37:13.037Z,11.13
2022-10-06T03:38:15.727Z,11.13
2022-10-06T03:39:19.011Z,11.13
2022-10-06T03:40:53.464Z,11.06
2022-10-06T03:41:56.164Z,11.06
2022-10-06T03:42:58.909Z,11.06
2022-10-06T03:44:33.725Z,11.06
2022-10-06T03:45:36.551Z,11.06
2022-10-06T03:46:39.418Z,11.06
2022-10-06T03:48:14.648Z,11.06
2022-10-06T03:49:18.429Z,11.06
2022-10-06T03:50:21.272Z,11.00
2022-10-06T03:51:55.759Z,11.00
2022-10-06T03:53:05.418Z,11.00
2022-10-06T03:54:08.323Z,11.00
2022-10-06T03:55:43.030Z,11.00
2022-10-06T03:56:45.953Z,10.94
2022-10-06T03:57:48.640Z,11.00
2022-10-06T03:59:23.212Z,10.94
2022-10-06T04:00:12.051Z,10.94
2022-10-06T04:01:15.196Z,10.94
2022-10-06T04:02:24.097Z,10.94
2022-10-06T04:03:58.562Z,10.88
2022-10-06T04:05:01.386Z,10.88
2022-10-06T04:05:43.147Z,10.88
2022-10-06T04:06:46.042Z,10.88
2022-10-06T04:07:48.829Z,10.88
2022-10-06T04:09:23.695Z,10.88
2022-10-06T04:10:26.708Z,10.88
2022-10-06T04:11:29.553Z,10.81
2022-10-06T04:13:03.986Z,10.81
2022-10-06T04:14:06.875Z,10.88
2022-10-06T04:15:09.622Z,10.81
2022-10-06T04:16:44.722Z,10.81
2022-10-06T04:17:47.469Z,10.75
2022-10-06T04:18:50.188Z,10.75
2022-10-06T04:20:24.789Z,10.75
2022-10-06T04:21:27.691Z,10.69
2022-10-06T04:22:30.381Z,10.69
2022-10-06T04:24:05.165Z,10.69
2022-10-06T04:25:07.937Z,10.69
2022-10-06T04:26:10.796Z,10.69
2022-10-06T04:27:45.539Z,10.69
2022-10-06T04:28:48.914Z,10.69
2022-10-06T04:29:51.709Z,10.63
2022-10-06T04:31:26.741Z,10.63
2022-10-06T04:32:30.438Z,10.63
2022-10-06T04:33:33.183Z,10.63
2022-10-06T04:35:07.765Z,10.69
2022-10-06T04:36:10.465Z,10.69
2022-10-06T04:37:13.306Z,10.69
2022-10-06T04:38:48.018Z,10.69
2022-10-06T04:39:51.102Z,10.69
2022-10-06T04:40:54.193Z,10.69
2022-10-06T04:42:33.989Z,10.69
2022-10-06T04:43:37.872Z,10.69
2022-10-06T04:44:40.547Z,10.69
2022-10-06T04:46:41.060Z,10.69
2022-10-06T04:47:45.272Z,10.63
2022-10-06T04:48:50.666Z,10.63
2022-10-06T04:50:31.992Z,10.63
2022-10-06T04:51:34.736Z,10.63
2022-10-06T04:52:37.355Z,10.63
2022-10-06T04:54:11.752Z,10.56
2022-10-06T04:55:19.769Z,10.56
2022-10-06T04:56:22.477Z,10.56
2022-10-06T04:57:57.089Z,10.56
2022-10-06T04:58:59.819Z,10.56
2022-10-06T05:00:14.903Z,10.50
2022-10-06T05:01:18.286Z,10.50
2022-10-06T05:02:21.613Z,10.50
2022-10-06T05:03:56.714Z,10.50
2022-10-06T05:04:59.387Z,10.44
2022-10-06T05:06:02.142Z,10.44
2022-10-06T05:07:36.938Z,10.44
2022-10-06T05:08:39.769Z,10.44
2022-10-06T05:09:42.668Z,10.44
2022-10-06T05:11:19.466Z,10.44
2022-10-06T05:12:24.025Z,10.44
2022-10-06T05:13:26.899Z,10.44
2022-10-06T05:15:01.605Z,10.38
2022-10-06T05:16:04.686Z,10.38
2022-10-06T05:17:08.167Z,10.38
2022-10-06T05:18:42.696Z,10.38
2022-10-06T05:19:45.417Z,10.38
2022-10-06T05:20:48.168Z,10.38
2022-10-06T05:22:29.115Z,10.38
2022-10-06T05:23:31.835Z,10.38
2022-10-06T05:24:34.736Z,10.38
2022-10-06T05:26:09.315Z,10.38
2022-10-06T05:27:12.031Z,10.38
2022-10-06T05:28:14.718Z,10.38
2022-10-06T05:29:51.378Z,10.38
2022-10-06T05:30:54.195Z,10.38
2022-10-06T05:31:57.603Z,10.31
2022-10-06T05:33:32.786Z,10.38
2022-10-06T05:34:35.449Z,10.31
2022-10-06T05:35:38.220Z,10.31
2022-10-06T05:37:13.135Z,10.31
2022-10-06T05:38:15.999Z,10.31
2022-10-06T05:39:19.603Z,10.31
2022-10-06T05:40:54.198Z,10.25
2022-10-06T05:41:56.990Z,10.25
2022-10-06T05:43:04.657Z,10.25
2022-10-06T05:44:39.438Z,10.31
2022-10-06T05:45:42.382Z,10.31
2022-10-06T05:46:46.178Z,10.31
2022-10-06T05:48:20.581Z,10.31
2022-10-06T05:49:24.556Z,10.31
2022-10-06T05:50:27.264Z,10.25
2022-10-06T05:52:05.618Z,10.31
2022-10-06T05:53:08.665Z,10.31
2022-10-06T05:54:11.278Z,10.31
2022-10-06T05:55:45.979Z,10.31
2022-10-06T05:56:48.736Z,10.31
2022-10-06T05:57:51.357Z,10.31
2022-10-06T05:59:30.650Z,10.31
2022-10-06T06:00:12.000Z,10.25
2022-10-06T06:01:15.211Z,10.25
2022-10-06T06:02:18.618Z,10.25
2022-10-06T06:03:53.837Z,10.25
2022-10-06T06:04:56.662Z,10.25
2022-10-06T06:05:59.751Z,10.25
2022-10-06T06:07:34.432Z,10.25
2022-10-06T06:08:37.377Z,10.25
2022-10-06T06:09:40.261Z,10.25
2022-10-06T06:11:14.774Z,10.25
2022-10-06T06:12:17.631Z,10.25
2022-10-06T06:13:20.399Z,10.25
2022-10-06T06:14:54.953Z,10.25
2022-10-06T06:15:57.757Z,10.25
2022-10-06T06:17:00.844Z,10.25
2022-10-06T06:18:35.539Z,10.25
2022-10-06T06:19:38.428Z,10.25
2022-10-06T06:20:41.207Z,10.25
2022-10-06T06:22:15.789Z,10.25
2022-10-06T06:23:18.525Z,10.25
2022-10-06T06:24:21.387Z,10.19
2022-10-06T06:26:00.001Z,10.19
2022-10-06T06:27:04.944Z,10.25
2022-10-06T06:28:07.740Z,10.25
2022-10-06T06:29:43.453Z,10.25
2022-10-06T06:30:46.261Z,10.25
2022-10-06T06:31:55.070Z,10.25
2022-10-06T06:33:29.591Z,10.25
2022-10-06T06:34:32.388Z,10.25
2022-10-06T06:35:35.233Z,10.31
2022-10-06T06:37:14.159Z,10.31
2022-10-06T06:38:17.935Z,10.25
2022-10-06T06:39:20.887Z,10.25
2022-10-06T06:40:55.590Z,10.25
2022-10-06T06:41:58.410Z,10.25
2022-10-06T06:43:01.046Z,10.25
2022-10-06T06:44:36.281Z,10.25
2022-10-06T06:45:39.191Z,10.25
2022-10-06T06:46:42.568Z,10.25
2022-10-06T06:48:17.293Z,10.19
2022-10-06T06:49:20.959Z,10.25
2022-10-06T06:50:24.036Z,10.25
2022-10-06T06:51:59.128Z,10.25
2022-10-06T06:53:01.834Z,10.25
2022-10-06T06:54:08.099Z,10.25
2022-10-06T06:55:42.796Z,10.25
2022-10-06T06:56:45.676Z,10.25
2022-10-06T06:57:48.574Z,10.25
2022-10-06T06:59:23.300Z,10.25
2022-10-06T07:00:12.264Z,10.25
2022-10-06T07:01:22.196Z,10.31
2022-10-06T07:02:25.993Z,10.31
2022-10-06T07:04:32.979Z,10.38
2022-10-06T07:05:35.661Z,10.38
2022-10-06T07:06:38.411Z,10.38
2022-10-06T07:08:13.182Z,10.44
2022-10-06T07:09:16.625Z,10.44
2022-10-06T07:10:19.545Z,10.50
2022-10-06T07:11:54.171Z,10.50
2022-10-06T07:12:56.839Z,10.56
2022-10-06T07:14:00.619Z,10.56
2022-10-06T07:15:35.604Z,10.63
2022-10-06T07:16:38.639Z,10.63
2022-10-06T07:17:41.536Z,10.63
2022-10-06T07:19:20.202Z,10.69
2022-10-06T07:20:26.502Z,10.69
2022-10-06T07:21:29.527Z,10.75
2022-10-06T07:23:04.163Z,10.75
2022-10-06T07:24:07.113Z,10.81
2022-10-06T07:25:10.189Z,10.81
2022-10-06T07:26:49.242Z,10.88
2022-10-06T07:27:52.239Z,10.94
2022-10-06T07:28:55.413Z,10.94
2022-10-06T07:30:31.203Z,11.06
2022-10-06T07:31:38.460Z,11.06
2022-10-06T07:32:41.449Z,11.19
2022-10-06T07:34:16.006Z,11.25
2022-10-06T07:35:19.211Z,11.25
2022-10-06T07:36:22.027Z,11.31
2022-10-06T07:37:56.730Z,11.38
2022-10-06T07:38:59.762Z,11.50
2022-10-06T07:40:02.504Z,11.56
2022-10-06T07:42:04.642Z,11.63
2022-10-06T07:43:07.547Z,11.69
2022-10-06T07:44:10.486Z,11.75
2022-10-06T07:45:45.439Z,11.88
2022-10-06T07:46:49.218Z,11.88
2022-10-06T07:47:51.909Z,11.94
2022-10-06T07:49:26.819Z,12.00
2022-10-06T07:50:29.840Z,12.06
2022-10-06T07:51:32.809Z,12.19
2022-10-06T07:53:07.361Z,12.19
2022-10-06T07:54:10.238Z,12.31
2022-10-06T07:55:18.998Z,12.31
2022-10-06T07:56:53.735Z,12.38
2022-10-06T07:57:56.334Z,12.44
2022-10-06T07:58:59.069Z,12.44
2022-10-06T08:00:11.976Z,12.44
2022-10-06T08:01:15.215Z,12.50
2022-10-06T08:02:18.721Z,12.63
2022-10-06T08:03:59.786Z,12.63
2022-10-06T08:05:02.579Z,12.75
2022-10-06T08:06:05.530Z,12.75
2022-10-06T08:07:40.207Z,12.81
2022-10-06T08:08:43.037Z,12.88
2022-10-06T08:09:50.254Z,12.88
2022-10-06T08:11:24.819Z,12.94
2022-10-06T08:12:27.424Z,12.94
2022-10-06T08:13:30.626Z,13.00
2022-10-06T08:15:07.233Z,13.06
2022-10-06T08:16:10.489Z,13.13
2022-10-06T08:17:13.877Z,13.13
2022-10-06T08:19:21.065Z,13.25
2022-10-06T08:20:23.937Z,13.25
2022-10-06T08:21:26.758Z,13.31
2022-10-06T08:23:01.359Z,13.31
2022-10-06T08:24:04.222Z,13.38
2022-10-06T08:25:40.305Z,13.38
2022-10-06T08:27:15.170Z,13.38
2022-10-06T08:28:18.127Z,13.44
2022-10-06T08:29:21.393Z,13.44
2022-10-06T08:30:56.253Z,13.50
2022-10-06T08:31:59.728Z,13.56
2022-10-06T08:33:02.571Z,13.56
2022-10-06T08:34:46.283Z,13.63
2022-10-06T08:35:50.335Z,13.69
2022-10-06T08:37:18.759Z,13.69
2022-10-06T08:38:54.506Z,13.75
2022-10-06T08:39:57.308Z,13.81
2022-10-06T08:41:00.147Z,13.81
2022-10-06T08:42:34.909Z,13.88
2022-10-06T08:43:37.782Z,13.94
2022-10-06T08:44:40.592Z,14.00
2022-10-06T08:46:22.472Z,14.06
2022-10-06T08:47:27.586Z,14.06
2022-10-06T08:48:30.492Z,14.13
2022-10-06T08:50:05.108Z,14.13
2022-10-06T08:51:07.775Z,14.19
2022-10-06T08:52:10.580Z,14.25
2022-10-06T08:53:51.046Z,14.31
2022-10-06T08:54:53.588Z,14.31
2022-10-06T08:55:56.496Z,14.38
2022-10-06T08:57:31.500Z,14.50
2022-10-06T08:58:35.020Z,14.56
2022-10-06T08:59:38.117Z,14.63
2022-10-06T09:00:12.566Z,14.63
2022-10-06T09:01:19.466Z,14.69
2022-10-06T09:02:23.205Z,14.69
2022-10-06T09:03:58.470Z,14.75
2022-10-06T09:05:01.497Z,14.75
2022-10-06T09:06:04.365Z,14.69
2022-10-06T09:07:45.542Z,14.75
2022-10-06T09:08:48.362Z,14.69
2022-10-06T09:09:51.365Z,14.69
2022-10-06T09:11:26.720Z,14.69
2022-10-06T09:12:29.683Z,14.75
2022-10-06T09:13:32.463Z,14.75
2022-10-06T09:15:08.176Z,14.75
2022-10-06T09:16:11.183Z,14.75
2022-10-06T09:17:14.541Z,14.81
2022-10-06T09:19:07.086Z,14.94
2022-10-06T09:20:14.519Z,14.94
2022-10-06T09:21:17.334Z,15.00
2022-10-06T09:22:52.321Z,15.00
2022-10-06T09:23:55.053Z,15.00
2022-10-06T09:24:57.927Z,15.00
2022-10-06T09:26:32.919Z,15.00
2022-10-06T09:27:36.045Z,15.00
2022-10-06T09:28:39.272Z,15.00
2022-10-06T09:30:13.899Z,14.94
2022-10-06T09:31:16.771Z,14.81
2022-10-06T09:32:20.423Z,14.69
2022-10-06T09:33:55.049Z,14.56
2022-10-06T09:34:58.185Z,14.63
2022-10-06T09:36:01.007Z,14.69
2022-10-06T09:37:41.591Z,14.75
2022-10-06T09:38:49.692Z,14.81
2022-10-06T09:39:52.875Z,14.88
2022-10-06T09:41:28.259Z,15.06
2022-10-06T09:42:31.035Z,15.06
2022-10-06T09:43:34.046Z,15.06
2022-10-06T09:45:08.711Z,15.19
2022-10-06T09:46:11.849Z,15.25
2022-10-06T09:47:14.756Z,15.25
2022-10-06T09:48:49.430Z,15.31
2022-10-06T09:49:52.241Z,15.31
2022-10-06T09:50:55.628Z,15.31
2022-10-06T09:52:30.178Z,15.38
2022-10-06T09:53:37.545Z,15.50
2022-10-06T09:54:40.739Z,15.63
2022-10-06T09:56:15.266Z,15.75
2022-10-06T09:57:18.074Z,15.75
2022-10-06T09:58:20.886Z,15.69
2022-10-06T09:59:55.834Z,15.63
2022-10-06T10:00:12.192Z,15.63
2022-10-06T10:01:15.304Z,15.63
2022-10-06T10:02:18.465Z,15.63
2022-10-06T10:04:18.900Z,15.63
2022-10-06T10:05:26.441Z,15.75
2022-10-06T10:06:29.216Z,15.81
2022-10-06T10:08:04.069Z,15.81
2022-10-06T10:09:07.188Z,15.75
2022-10-06T10:10:14.655Z,15.69
2022-10-06T10:11:49.252Z,15.69
2022-10-06T10:12:52.158Z,15.63
2022-10-06T10:13:54.963Z,15.56
2022-10-06T10:15:29.765Z,15.56
2022-10-06T10:16:33.338Z,15.63
2022-10-06T10:17:39.463Z,15.63
2022-10-06T10:19:14.196Z,15.69
2022-10-06T10:20:17.138Z,15.75
2022-10-06T10:21:20.010Z,15.81
2022-10-06T10:22:54.851Z,15.88
2022-10-06T10:24:03.518Z,16.00
2022-10-06T10:25:06.298Z,16.00
2022-10-06T10:26:40.934Z,16.00
2022-10-06T10:27:43.943Z,16.06
2022-10-06T10:28:47.231Z,16.13
2022-10-06T10:30:21.840Z,16.13
2022-10-06T10:31:24.728Z,16.13
2022-10-06T10:32:28.247Z,16.13
2022-10-06T10:34:12.811Z,16.19
2022-10-06T10:35:25.694Z,16.19
2022-10-06T10:36:28.494Z,16.19
2022-10-06T10:38:03.294Z,16.25
2022-10-06T10:39:11.939Z,16.31
2022-10-06T10:40:14.823Z,16.25
2022-10-06T10:41:49.634Z,16.19
2022-10-06T10:42:52.346Z,16.13
2022-10-06T10:43:55.065Z,15.94
2022-10-06T10:45:33.941Z,15.81
2022-10-06T10:46:37.029Z,15.69
2022-10-06T10:47:40.654Z,15.63
2022-10-06T10:49:15.269Z,15.63
2022-10-06T10:50:18.084Z,15.63
2022-10-06T10:51:20.816Z,15.56
2022-10-06T10:52:55.374Z,15.50
2022-10-06T10:53:58.374Z,15.44
2022-10-06T10:55:01.207Z,15.38
2022-10-06T10:56:35.925Z,15.38
2022-10-06T10:57:38.884Z,15.31
2022-10-06T10:58:41.594Z,15.31
2022-10-06T11:00:12.091Z,15.25
2022-10-06T11:01:15.319Z,15.25
2022-10-06T11:02:18.542Z,15.19
2022-10-06T11:03:53.313Z,15.13
2022-10-06T11:04:56.367Z,15.06
2022-10-06T11:06:03.749Z,15.00
2022-10-06T11:07:38.634Z,14.88
2022-10-06T11:08:41.349Z,14.88
2022-10-06T11:09:44.269Z,14.81
2022-10-06T11:11:19.122Z,14.88
2022-10-06T11:12:27.156Z,14.81
2022-10-06T11:13:29.848Z,14.88
2022-10-06T11:15:04.406Z,14.81
2022-10-06T11:16:07.334Z,14.81
2022-10-06T11:17:10.621Z,14.88
2022-10-06T11:18:45.193Z,14.88
2022-10-06T11:19:47.908Z,14.81
2022-10-06T11:20:50.722Z,14.75
2022-10-06T11:22:25.375Z,14.75
2022-10-06T11:23:28.282Z,14.75
2022-10-06T11:24:31.052Z,14.81
2022-10-06T11:26:10.047Z,14.88
2022-10-06T11:27:13.096Z,14.88
2022-10-06T11:28:16.095Z,14.88
2022-10-06T11:29:51.627Z,14.81
2022-10-06T11:30:54.975Z,14.81
2022-10-06T11:32:03.625Z,14.81
2022-10-06T11:33:38.329Z,14.81
2022-10-06T11:34:41.046Z,14.81
2022-10-06T11:35:43.840Z,14.88
2022-10-06T11:37:18.442Z,14.94
2022-10-06T11:38:21.209Z,15.00
2022-10-06T11:39:23.986Z,15.06
2022-10-06T11:40:58.564Z,15.25
2022-10-06T11:42:06.970Z,15.44
2022-10-06T11:43:10.269Z,15.81
2022-10-06T11:44:45.268Z,16.00
2022-10-06T11:45:48.988Z,16.19
2022-10-06T11:46:52.369Z,16.25
2022-10-06T11:48:41.284Z,16.44
2022-10-06T11:49:44.097Z,16.44
2022-10-06T11:50:46.960Z,16.50
2022-10-06T11:52:21.450Z,16.56
2022-10-06T11:53:24.290Z,16.63
2022-10-06T11:54:27.066Z,16.63
2022-10-06T11:56:01.600Z,16.63
2022-10-06T11:57:04.317Z,16.63
2022-10-06T11:58:37.302Z,16.63
2022-10-06T12:00:12.596Z,16.69
2022-10-06T12:01:15.578Z,16.69
2022-10-06T12:02:19.099Z,16.69
2022-10-06T12:03:55.725Z,16.75
2022-10-06T12:05:13.923Z,16.81
2022-10-06T12:06:54.163Z,16.81
2022-10-06T12:08:29.036Z,16.81
2022-10-06T12:09:31.851Z,16.81
2022-10-06T12:10:39.142Z,16.81
2022-10-06T12:12:13.992Z,16.81
2022-10-06T12:13:57.793Z,16.81
2022-10-06T12:18:00.124Z,17.00
2022-10-06T12:19:34.656Z,17.00
2022-10-06T12:20:37.505Z,17.06
2022-10-06T12:21:40.284Z,17.06
2022-10-06T12:23:15.132Z,17.06
2022-10-06T12:24:18.042Z,17.00
2022-10-06T12:25:21.006Z,17.00
2022-10-06T12:26:55.889Z,17.06
2022-10-06T12:28:03.987Z,17.00
2022-10-06T12:29:07.671Z,17.00
2022-10-06T12:30:43.562Z,16.94
2022-10-06T12:31:53.028Z,16.94
2022-10-06T12:32:55.978Z,16.94
2022-10-06T12:34:30.775Z,16.94
2022-10-06T12:35:34.117Z,16.94
2022-10-06T12:36:36.826Z,16.94
2022-10-06T12:38:14.237Z,16.94
2022-10-06T12:39:17.296Z,17.00
2022-10-06T12:40:20.460Z,17.00
2022-10-06T12:41:55.141Z,17.00
2022-10-06T12:42:58.014Z,17.06
2022-10-06T12:44:01.054Z,17.06
2022-10-06T12:45:36.648Z,17.06
2022-10-06T12:46:43.951Z,17.06
2022-10-06T12:47:46.952Z,16.94
2022-10-06T12:49:21.653Z,16.94
2022-10-06T12:50:24.483Z,16.94
2022-10-06T12:51:27.296Z,16.88
2022-10-06T12:53:09.516Z,16.88
2022-10-06T12:54:12.625Z,16.94
2022-10-06T12:55:15.544Z,16.94
2022-10-06T12:56:50.526Z,17.00
2022-10-06T12:57:53.654Z,17.00
2022-10-06T12:58:56.608Z,17.06
2022-10-06T13:00:12.630Z,17.06
2022-10-06T13:01:15.919Z,17.06
2022-10-06T13:02:19.306Z,17.13
2022-10-06T13:03:54.411Z,17.06
2022-10-06T13:04:57.427Z,17.06
2022-10-06T13:06:00.904Z,17.00
2022-10-06T13:07:41.260Z,17.00
2022-10-06T13:08:44.040Z,17.00
2022-10-06T13:09:46.954Z,17.00
2022-10-06T13:11:21.793Z,16.94
2022-10-06T13:12:24.944Z,16.94
2022-10-06T13:13:28.006Z,16.94
2022-10-06T13:15:02.779Z,16.94
2022-10-06T13:16:06.982Z,16.88
2022-10-06T13:17:10.330Z,16.81
2022-10-06T13:18:45.391Z,16.75
2022-10-06T13:19:48.519Z,16.69
2022-10-06T13:20:52.185Z,16.69
2022-10-06T13:22:27.074Z,16.63
2022-10-06T13:23:29.896Z,16.69
2022-10-06T13:24:32.696Z,16.75
2022-10-06T13:26:07.653Z,16.81
2022-10-06T13:27:10.658Z,16.88
2022-10-06T13:28:13.921Z,17.06
2022-10-06T13:29:49.689Z,17.13
2022-10-06T13:30:53.432Z,17.13
2022-10-06T13:31:56.432Z,17.19
2022-10-06T13:33:31.246Z,17.19
2022-10-06T13:34:34.076Z,17.25
2022-10-06T13:35:37.483Z,17.25
2022-10-06T13:38:15.935Z,17.31
2022-10-06T13:39:18.982Z,17.38
2022-10-06T13:41:25.546Z,17.44
2022-10-06T13:42:28.258Z,17.44
2022-10-06T13:43:32.593Z,17.44
2022-10-06T13:45:09.840Z,17.44
2022-10-06T13:46:12.769Z,17.38
2022-10-06T13:47:16.322Z,17.31
2022-10-06T13:48:51.106Z,17.13
2022-10-06T13:49:53.905Z,17.00
2022-10-06T13:51:03.295Z,16.94
2022-10-06T13:52:38.392Z,16.75
2022-10-06T13:53:41.463Z,16.69
2022-10-06T13:54:44.419Z,16.63
2022-10-06T13:56:20.209Z,16.56
2022-10-06T13:57:23.453Z,16.56
2022-10-06T13:58:26.204Z,16.63
2022-10-06T14:00:01.290Z,16.69
2022-10-06T14:00:12.022Z,16.69
2022-10-06T14:01:15.155Z,16.75
2022-10-06T14:02:18.870Z,16.81
2022-10-06T14:03:54.473Z,16.81
2022-10-06T14:04:57.708Z,16.81
2022-10-06T14:06:00.753Z,16.75
2022-10-06T14:07:35.709Z,16.69
2022-10-06T14:08:38.705Z,16.56
2022-10-06T14:09:42.124Z,16.44
2022-10-06T14:11:16.661Z,16.38
2022-10-06T14:12:23.938Z,16.38
2022-10-06T14:13:26.911Z,16.31
2022-10-06T14:15:01.891Z,16.38
2022-10-06T14:16:05.054Z,16.38
2022-10-06T14:17:08.308Z,16.44
2022-10-06T14:18:43.068Z,16.50
2022-10-06T14:19:47.065Z,16.56
2022-10-06T14:20:50.365Z,16.63
2022-10-06T14:22:25.208Z,16.63
2022-10-06T14:23:28.232Z,16.63
2022-10-06T14:24:31.299Z,16.63
2022-10-06T14:26:06.128Z,16.50
2022-10-06T14:27:09.116Z,16.44
2022-10-06T14:28:12.100Z,16.38
2022-10-06T14:29:47.421Z,16.25
2022-10-06T14:30:50.856Z,16.25
2022-10-06T14:32:00.541Z,16.19
2022-10-06T14:33:35.330Z,16.19
2022-10-06T14:34:38.105Z,16.25
2022-10-06T14:35:40.832Z,16.25
2022-10-06T14:37:15.684Z,16.31
2022-10-06T14:38:18.698Z,16.38
2022-10-06T14:39:21.890Z,16.38
2022-10-06T14:40:58.349Z,16.50
2022-10-06T14:42:05.195Z,16.50
2022-10-06T14:43:08.023Z,16.50
2022-10-06T14:44:42.949Z,16.44
2022-10-06T14:45:46.676Z,16.44
2022-10-06T14:46:55.917Z,16.44
2022-10-06T14:48:30.614Z,16.38
2022-10-06T14:49:33.330Z,16.31
2022-10-06T14:50:36.247Z,16.31
2022-10-06T14:52:16.341Z,16.25
2022-10-06T14:53:19.255Z,16.25
2022-10-06T14:54:22.195Z,16.19
2022-10-06T14:55:56.930Z,16.19
2022-10-06T14:57:00.096Z,16.13
2022-10-06T14:58:02.887Z,16.13
2022-10-06T14:59:37.541Z,16.06
2022-10-06T15:00:12.343Z,16.06
2022-10-06T15:01:15.251Z,16.00
2022-10-06T15:02:18.292Z,16.00
2022-10-06T15:03:54.533Z,15.88
2022-10-06T15:04:57.815Z,15.81
2022-10-06T15:06:00.744Z,15.75
2022-10-06T15:07:35.741Z,15.75
2022-10-06T15:08:38.419Z,15.69
2022-10-06T15:09:41.684Z,15.69
2022-10-06T15:11:16.300Z,15.69
2022-10-06T15:12:19.318Z,15.69
2022-10-06T15:13:25.892Z,15.63
2022-10-06T15:15:00.513Z,15.63
2022-10-06T15:16:03.475Z,15.63
2022-10-06T15:17:06.690Z,15.56
2022-10-06T15:18:42.815Z,15.56
2022-10-06T15:19:45.898Z,15.56
2022-10-06T15:20:48.652Z,15.56
2022-10-06T15:22:23.282Z,15.56
2022-10-06T15:23:26.536Z,15.56
2022-10-06T15:24:29.375Z,15.50
2022-10-06T15:26:03.959Z,15.50
2022-10-06T15:27:06.629Z,15.56
2022-10-06T15:28:18.634Z,15.50
2022-10-06T15:29:56.251Z,15.50
2022-10-06T15:30:59.377Z,15.50
2022-10-06T15:32:02.494Z,15.50
2022-10-06T15:33:36.970Z,15.50
2022-10-06T15:34:44.898Z,15.44
2022-10-06T15:35:47.658Z,15.44
2022-10-06T15:37:22.535Z,15.44
2022-10-06T15:38:25.486Z,15.44
2022-10-06T15:39:28.281Z,15.44
2022-10-06T15:41:03.019Z,15.38
2022-10-06T15:42:06.457Z,15.38
2022-10-06T15:43:09.930Z,15.38
2022-10-06T15:44:44.595Z,15.31
2022-10-06T15:45:53.607Z,15.31
2022-10-06T15:46:57.062Z,15.31
2022-10-06T15:48:32.083Z,15.25
2022-10-06T15:49:34.805Z,15.25
2022-10-06T15:50:37.901Z,15.25
2022-10-06T15:52:12.677Z,15.19
2022-10-06T15:53:15.530Z,15.19
2022-10-06T15:54:18.315Z,15.13
2022-10-06T15:55:53.336Z,15.13
2022-10-06T15:56:56.151Z,15.06